sensor_id;sensor_type;location;lat;lon;timestamp;temperature;humidity
2621;DHT22;1320;48.128;11.592;2024-02-16T01:18:15;9.90;99.90
2621;DHT22;1320;48.128;11.592;2024-02-16T01:20:41;9.90;99.90
2621;DHT22;1320;48.128;11.592;2024-02-16T01:23:06;9.80;99.90
2621;DHT22;1320;48.128;11.592;2024-02-16T03:40:00;9.50;99.90
2621;DHT22;1320;48.128;11.592;2024-02-16T03:42:26;9.60;99.90
2621;DHT22;1320;48.128;11.592;2024-02-16T03:44:52;9.40;99.90
2621;DHT22;1320;48.128;11.592;2024-02-16T03:47:17;9.40;99.90
2621;DHT22;1320;48.128;11.592;2024-02-16T03:49:43;9.40;99.90
2621;DHT22;1320;48.128;11.592;2024-02-16T03:52:09;9.40;99.90
2621;DHT22;1320;48.128;11.592;2024-02-16T03:54:34;9.40;99.90
2621;DHT22;1320;48.128;11.592;2024-02-16T03:57:00;9.40;99.90
2621;DHT22;1320;48.128;11.592;2024-02-16T03:59:26;9.40;99.90
2621;DHT22;1320;48.128;11.592;2024-02-16T04:01:51;9.40;99.90
2621;DHT22;1320;48.128;11.592;2024-02-16T04:04:17;9.40;99.90
2621;DHT22;1320;48.128;11.592;2024-02-16T04:06:43;9.40;99.90
2621;DHT22;1320;48.128;11.592;2024-02-16T04:09:09;9.40;99.90
2621;DHT22;1320;48.128;11.592;2024-02-16T04:11:35;9.40;99.90
2621;DHT22;1320;48.128;11.592;2024-02-16T04:14:01;9.40;99.90
2621;DHT22;1320;48.128;11.592;2024-02-16T04:16:28;9.40;99.90
2621;DHT22;1320;48.128;11.592;2024-02-16T04:18:53;9.30;99.90
2621;DHT22;1320;48.128;11.592;2024-02-16T04:21:20;9.30;99.90
2621;DHT22;1320;48.128;11.592;2024-02-16T04:23:46;9.20;99.90
2621;DHT22;1320;48.128;11.592;2024-02-16T04:26:12;9.20;99.90
2621;DHT22;1320;48.128;11.592;2024-02-16T04:28:37;9.20;99.90
2621;DHT22;1320;48.128;11.592;2024-02-16T04:31:04;9.20;99.90
2621;DHT22;1320;48.128;11.592;2024-02-16T04:33:30;9.20;99.90
2621;DHT22;1320;48.128;11.592;2024-02-16T04:35:56;9.10;99.90
2621;DHT22;1320;48.128;11.592;2024-02-16T04:38:21;9.00;99.90
2621;DHT22;1320;48.128;11.592;2024-02-16T04:40:47;8.90;99.90
2621;DHT22;1320;48.128;11.592;2024-02-16T04:43:12;8.80;99.90
2621;DHT22;1320;48.128;11.592;2024-02-16T04:45:38;8.80;99.90
2621;DHT22;1320;48.128;11.592;2024-02-16T04:48:05;8.80;99.90
2621;DHT22;1320;48.128;11.592;2024-02-16T04:50:35;8.80;99.90
2621;DHT22;1320;48.128;11.592;2024-02-16T04:53:01;8.80;99.90
2621;DHT22;1320;48.128;11.592;2024-02-16T04:55:27;8.80;99.90
2621;DHT22;1320;48.128;11.592;2024-02-16T04:57:54;8.80;99.90
2621;DHT22;1320;48.128;11.592;2024-02-16T05:00:20;8.70;99.90
2621;DHT22;1320;48.128;11.592;2024-02-16T05:02:46;8.70;99.90
2621;DHT22;1320;48.128;11.592;2024-02-16T05:05:12;8.70;99.90
2621;DHT22;1320;48.128;11.592;2024-02-16T05:07:37;8.60;99.90
2621;DHT22;1320;48.128;11.592;2024-02-16T05:10:08;8.70;99.90
2621;DHT22;1320;48.128;11.592;2024-02-16T05:12:34;8.70;99.90
2621;DHT22;1320;48.128;11.592;2024-02-16T05:15:00;8.70;99.90
2621;DHT22;1320;48.128;11.592;2024-02-16T05:17:26;8.80;99.90
2621;DHT22;1320;48.128;11.592;2024-02-16T05:19:52;8.80;99.90
2621;DHT22;1320;48.128;11.592;2024-02-16T05:22:19;8.90;99.90
2621;DHT22;1320;48.128;11.592;2024-02-16T05:24:47;8.90;99.90
2621;DHT22;1320;48.128;11.592;2024-02-16T05:27:13;9.00;99.90
2621;DHT22;1320;48.128;11.592;2024-02-16T05:29:40;9.10;99.90
2621;DHT22;1320;48.128;11.592;2024-02-16T05:32:06;9.20;99.90
2621;DHT22;1320;48.128;11.592;2024-02-16T05:34:31;9.30;99.90
2621;DHT22;1320;48.128;11.592;2024-02-16T05:37:04;9.30;99.90
2621;DHT22;1320;48.128;11.592;2024-02-16T05:39:36;9.40;99.90
2621;DHT22;1320;48.128;11.592;2024-02-16T05:42:08;9.40;99.90
2621;DHT22;1320;48.128;11.592;2024-02-16T05:44:34;9.50;99.90
2621;DHT22;1320;48.128;11.592;2024-02-16T05:47:00;9.50;99.90
2621;DHT22;1320;48.128;11.592;2024-02-16T05:49:26;9.50;99.90
2621;DHT22;1320;48.128;11.592;2024-02-16T05:51:51;9.50;99.90
2621;DHT22;1320;48.128;11.592;2024-02-16T05:54:47;9.60;99.90
2621;DHT22;1320;48.128;11.592;2024-02-16T05:57:16;9.60;99.90
2621;DHT22;1320;48.128;11.592;2024-02-16T05:59:44;9.60;99.90
2621;DHT22;1320;48.128;11.592;2024-02-16T06:02:11;9.60;99.90
2621;DHT22;1320;48.128;11.592;2024-02-16T06:04:38;9.60;99.90
2621;DHT22;1320;48.128;11.592;2024-02-16T06:07:04;9.60;99.90
2621;DHT22;1320;48.128;11.592;2024-02-16T06:09:30;9.60;99.90
2621;DHT22;1320;48.128;11.592;2024-02-16T06:12:01;9.60;99.90
2621;DHT22;1320;48.128;11.592;2024-02-16T06:14:29;9.60;99.90
2621;DHT22;1320;48.128;11.592;2024-02-16T06:16:55;9.60;99.90
2621;DHT22;1320;48.128;11.592;2024-02-16T06:19:21;9.60;99.90
2621;DHT22;1320;48.128;11.592;2024-02-16T06:21:47;9.60;99.90
2621;DHT22;1320;48.128;11.592;2024-02-16T06:24:12;9.60;99.90
2621;DHT22;1320;48.128;11.592;2024-02-16T06:26:38;9.60;99.90
2621;DHT22;1320;48.128;11.592;2024-02-16T06:29:04;9.60;99.90
2621;DHT22;1320;48.128;11.592;2024-02-16T06:31:29;9.70;99.90
2621;DHT22;1320;48.128;11.592;2024-02-16T06:33:55;9.70;99.90
2621;DHT22;1320;48.128;11.592;2024-02-16T06:36:22;9.80;99.90
2621;DHT22;1320;48.128;11.592;2024-02-16T06:38:48;9.80;99.90
2621;DHT22;1320;48.128;11.592;2024-02-16T06:41:13;9.80;99.90
2621;DHT22;1320;48.128;11.592;2024-02-16T06:43:39;9.90;99.90
2621;DHT22;1320;48.128;11.592;2024-02-16T06:46:05;10.00;99.90
2621;DHT22;1320;48.128;11.592;2024-02-16T07:44:38;12.00;99.90
2621;DHT22;1320;48.128;11.592;2024-02-16T07:47:04;12.10;99.90
2621;DHT22;1320;48.128;11.592;2024-02-16T07:49:30;12.10;99.90
2621;DHT22;1320;48.128;11.592;2024-02-16T07:51:56;12.20;99.90
2621;DHT22;1320;48.128;11.592;2024-02-16T07:54:23;12.30;99.90
2621;DHT22;1320;48.128;11.592;2024-02-16T07:56:48;12.40;99.90
2621;DHT22;1320;48.128;11.592;2024-02-16T07:59:14;12.50;99.90
2621;DHT22;1320;48.128;11.592;2024-02-16T08:09:03;13.10;99.90
2621;DHT22;1320;48.128;11.592;2024-02-16T08:11:29;13.20;99.90
2621;DHT22;1320;48.128;11.592;2024-02-16T08:13:55;13.20;99.90
2621;DHT22;1320;48.128;11.592;2024-02-16T08:16:26;13.20;99.90
2621;DHT22;1320;48.128;11.592;2024-02-16T08:18:52;13.30;99.90
2621;DHT22;1320;48.128;11.592;2024-02-16T08:21:17;13.30;99.90
2621;DHT22;1320;48.128;11.592;2024-02-16T08:23:43;13.20;99.90
2621;DHT22;1320;48.128;11.592;2024-02-16T08:26:09;13.20;99.90
2621;DHT22;1320;48.128;11.592;2024-02-16T08:31:01;13.20;99.90
2621;DHT22;1320;48.128;11.592;2024-02-16T08:33:27;13.30;99.90
2621;DHT22;1320;48.128;11.592;2024-02-16T08:40:45;13.60;99.90
2621;DHT22;1320;48.128;11.592;2024-02-16T08:43:12;13.70;99.90
2621;DHT22;1320;48.128;11.592;2024-02-16T08:45:37;13.80;99.90
2621;DHT22;1320;48.128;11.592;2024-02-16T08:48:03;13.90;99.90
2621;DHT22;1320;48.128;11.592;2024-02-16T08:50:29;14.00;99.90
2621;DHT22;1320;48.128;11.592;2024-02-16T08:52:55;14.10;99.90
2621;DHT22;1320;48.128;11.592;2024-02-16T08:55:21;14.10;99.90
2621;DHT22;1320;48.128;11.592;2024-02-16T08:57:46;14.30;99.90
2621;DHT22;1320;48.128;11.592;2024-02-16T09:00:12;14.40;99.90
2621;DHT22;1320;48.128;11.592;2024-02-16T09:02:38;14.60;99.90
2621;DHT22;1320;48.128;11.592;2024-02-16T09:05:04;14.70;99.90
2621;DHT22;1320;48.128;11.592;2024-02-16T09:07:31;14.90;99.90
2621;DHT22;1320;48.128;11.592;2024-02-16T09:09:56;15.00;99.90
2621;DHT22;1320;48.128;11.592;2024-02-16T09:12:22;15.20;99.90
2621;DHT22;1320;48.128;11.592;2024-02-16T09:14:48;15.30;99.90
2621;DHT22;1320;48.128;11.592;2024-02-16T09:17:14;15.40;99.90
2621;DHT22;1320;48.128;11.592;2024-02-16T09:19:39;15.60;99.90
2621;DHT22;1320;48.128;11.592;2024-02-16T09:22:05;15.80;99.90
2621;DHT22;1320;48.128;11.592;2024-02-16T09:24:32;16.00;99.90
2621;DHT22;1320;48.128;11.592;2024-02-16T09:26:58;16.10;99.90
2621;DHT22;1320;48.128;11.592;2024-02-16T09:29:29;16.20;99.90
2621;DHT22;1320;48.128;11.592;2024-02-16T09:31:54;16.30;99.90
2621;DHT22;1320;48.128;11.592;2024-02-16T09:34:20;16.40;99.90
2621;DHT22;1320;48.128;11.592;2024-02-16T09:36:46;16.50;99.90
2621;DHT22;1320;48.128;11.592;2024-02-16T09:39:12;16.70;99.90
2621;DHT22;1320;48.128;11.592;2024-02-16T09:41:41;16.80;99.90
2621;DHT22;1320;48.128;11.592;2024-02-16T09:44:08;16.90;99.90
2621;DHT22;1320;48.128;11.592;2024-02-16T09:46:35;17.10;99.90
2621;DHT22;1320;48.128;11.592;2024-02-16T09:49:04;17.40;97.00
2621;DHT22;1320;48.128;11.592;2024-02-16T09:51:30;17.70;95.10
2621;DHT22;1320;48.128;11.592;2024-02-16T09:53:56;17.70;94.60
2621;DHT22;1320;48.128;11.592;2024-02-16T09:56:22;17.80;94.70
2621;DHT22;1320;48.128;11.592;2024-02-16T09:58:47;17.80;94.60
2621;DHT22;1320;48.128;11.592;2024-02-16T10:01:21;18.00;94.00
2621;DHT22;1320;48.128;11.592;2024-02-16T10:03:47;18.20;93.70
2621;DHT22;1320;48.128;11.592;2024-02-16T10:06:13;18.40;93.10
2621;DHT22;1320;48.128;11.592;2024-02-16T10:08:51;18.60;95.20
2621;DHT22;1320;48.128;11.592;2024-02-16T10:11:19;19.10;96.80
2621;DHT22;1320;48.128;11.592;2024-02-16T10:14:14;19.60;99.10
2621;DHT22;1320;48.128;11.592;2024-02-16T10:46:27;24.60;78.10
2621;DHT22;1320;48.128;11.592;2024-02-16T10:48:53;24.70;78.30
2621;DHT22;1320;48.128;11.592;2024-02-16T10:52:04;24.90;82.40
2621;DHT22;1320;48.128;11.592;2024-02-16T10:54:12;24.80;84.80
2621;DHT22;1320;48.128;11.592;2024-02-16T10:56:40;24.90;87.00
2621;DHT22;1320;48.128;11.592;2024-02-16T10:59:08;24.60;87.30
2621;DHT22;1320;48.128;11.592;2024-02-16T11:01:42;24.40;85.00
2621;DHT22;1320;48.128;11.592;2024-02-16T11:04:16;23.90;85.80
2621;DHT22;1320;48.128;11.592;2024-02-16T11:09:22;23.60;91.80
2621;DHT22;1320;48.128;11.592;2024-02-16T11:12:01;23.00;95.80
2621;DHT22;1320;48.128;11.592;2024-02-16T11:14:56;23.50;95.40
2621;DHT22;1320;48.128;11.592;2024-02-16T11:17:23;23.30;94.60
2621;DHT22;1320;48.128;11.592;2024-02-16T11:22:19;23.10;75.10
2621;DHT22;1320;48.128;11.592;2024-02-16T11:24:50;23.10;76.10
2621;DHT22;1320;48.128;11.592;2024-02-16T11:27:18;23.20;75.50
2621;DHT22;1320;48.128;11.592;2024-02-16T11:29:48;23.20;75.20
2621;DHT22;1320;48.128;11.592;2024-02-16T11:32:14;23.10;75.60
2621;DHT22;1320;48.128;11.592;2024-02-16T11:34:40;23.00;75.70
2621;DHT22;1320;48.128;11.592;2024-02-16T11:37:06;22.90;76.10
2621;DHT22;1320;48.128;11.592;2024-02-16T11:39:34;22.70;76.20
2621;DHT22;1320;48.128;11.592;2024-02-16T11:44:29;22.70;76.90
2621;DHT22;1320;48.128;11.592;2024-02-16T11:46:55;22.70;77.00
2621;DHT22;1320;48.128;11.592;2024-02-16T11:49:21;22.70;76.70
2621;DHT22;1320;48.128;11.592;2024-02-16T11:51:47;22.80;77.50
2621;DHT22;1320;48.128;11.592;2024-02-16T11:54:13;22.80;77.10
2621;DHT22;1320;48.128;11.592;2024-02-16T11:56:43;22.90;76.70
2621;DHT22;1320;48.128;11.592;2024-02-16T11:59:13;22.90;78.20
2621;DHT22;1320;48.128;11.592;2024-02-16T12:01:54;22.90;77.00
2621;DHT22;1320;48.128;11.592;2024-02-16T12:06:54;23.10;77.50
2621;DHT22;1320;48.128;11.592;2024-02-16T12:09:20;23.10;77.00
2621;DHT22;1320;48.128;11.592;2024-02-16T12:11:48;23.00;77.30
2621;DHT22;1320;48.128;11.592;2024-02-16T12:14:18;23.00;77.80
2621;DHT22;1320;48.128;11.592;2024-02-16T12:16:56;23.00;78.40
2621;DHT22;1320;48.128;11.592;2024-02-16T12:19:22;23.00;79.20
2621;DHT22;1320;48.128;11.592;2024-02-16T12:21:53;23.10;79.20
2621;DHT22;1320;48.128;11.592;2024-02-16T12:24:19;23.20;79.20
2621;DHT22;1320;48.128;11.592;2024-02-16T12:26:45;23.30;79.20
2621;DHT22;1320;48.128;11.592;2024-02-16T12:29:12;23.40;78.60
2621;DHT22;1320;48.128;11.592;2024-02-16T12:31:39;23.40;78.60
2621;DHT22;1320;48.128;11.592;2024-02-16T12:34:06;23.30;79.20
2621;DHT22;1320;48.128;11.592;2024-02-16T12:36:33;23.30;79.60
2621;DHT22;1320;48.128;11.592;2024-02-16T12:39:00;23.30;79.20
2621;DHT22;1320;48.128;11.592;2024-02-16T12:41:26;23.30;79.80
2621;DHT22;1320;48.128;11.592;2024-02-16T12:43:51;23.10;79.40
2621;DHT22;1320;48.128;11.592;2024-02-16T12:46:18;23.00;79.80
2621;DHT22;1320;48.128;11.592;2024-02-16T12:48:44;22.80;79.90
2621;DHT22;1320;48.128;11.592;2024-02-16T12:51:10;22.50;80.50
2621;DHT22;1320;48.128;11.592;2024-02-16T12:53:36;22.30;81.10
2621;DHT22;1320;48.128;11.592;2024-02-16T12:56:09;22.20;81.70
2621;DHT22;1320;48.128;11.592;2024-02-16T12:58:38;22.20;82.10
2621;DHT22;1320;48.128;11.592;2024-02-16T13:01:05;22.30;82.60
2621;DHT22;1320;48.128;11.592;2024-02-16T13:03:37;22.30;82.30
2621;DHT22;1320;48.128;11.592;2024-02-16T13:06:04;22.40;82.70
2621;DHT22;1320;48.128;11.592;2024-02-16T13:08:31;22.50;82.10
2621;DHT22;1320;48.128;11.592;2024-02-16T13:10:57;22.70;82.10
2621;DHT22;1320;48.128;11.592;2024-02-16T13:13:24;22.70;79.90
2621;DHT22;1320;48.128;11.592;2024-02-16T13:15:50;22.80;80.40
2621;DHT22;1320;48.128;11.592;2024-02-16T13:18:16;22.90;79.60
2621;DHT22;1320;48.128;11.592;2024-02-16T13:20:45;23.00;79.20
2621;DHT22;1320;48.128;11.592;2024-02-16T13:23:11;23.10;78.90
2621;DHT22;1320;48.128;11.592;2024-02-16T13:25:36;23.00;79.20
2621;DHT22;1320;48.128;11.592;2024-02-16T13:28:02;22.90;79.40
2621;DHT22;1320;48.128;11.592;2024-02-16T13:30:28;22.80;80.00
2621;DHT22;1320;48.128;11.592;2024-02-16T13:32:54;22.60;80.50
2621;DHT22;1320;48.128;11.592;2024-02-16T13:35:20;22.50;80.40
2621;DHT22;1320;48.128;11.592;2024-02-16T13:37:46;22.30;81.30
2621;DHT22;1320;48.128;11.592;2024-02-16T13:40:12;22.10;82.10
2621;DHT22;1320;48.128;11.592;2024-02-16T13:42:41;22.10;82.80
2621;DHT22;1320;48.128;11.592;2024-02-16T13:45:10;22.20;83.50
2621;DHT22;1320;48.128;11.592;2024-02-16T13:47:36;22.20;83.30
2621;DHT22;1320;48.128;11.592;2024-02-16T13:50:06;22.20;83.70
2621;DHT22;1320;48.128;11.592;2024-02-16T13:52:31;22.10;84.30
2621;DHT22;1320;48.128;11.592;2024-02-16T13:54:58;22.00;84.90
2621;DHT22;1320;48.128;11.592;2024-02-16T13:57:23;21.90;85.00
2621;DHT22;1320;48.128;11.592;2024-02-16T13:59:49;21.80;84.70
2621;DHT22;1320;48.128;11.592;2024-02-16T14:02:15;21.60;85.00
2621;DHT22;1320;48.128;11.592;2024-02-16T14:04:41;21.50;85.20
2621;DHT22;1320;48.128;11.592;2024-02-16T14:07:07;21.40;85.50
2621;DHT22;1320;48.128;11.592;2024-02-16T14:09:33;21.20;86.20
2621;DHT22;1320;48.128;11.592;2024-02-16T14:11:58;21.10;86.60
2621;DHT22;1320;48.128;11.592;2024-02-16T14:14:25;21.10;86.80
2621;DHT22;1320;48.128;11.592;2024-02-16T14:16:51;21.00;87.40
2621;DHT22;1320;48.128;11.592;2024-02-16T14:19:17;20.90;87.60
2621;DHT22;1320;48.128;11.592;2024-02-16T14:21:45;20.80;88.00
2621;DHT22;1320;48.128;11.592;2024-02-16T14:24:13;20.80;88.20
2621;DHT22;1320;48.128;11.592;2024-02-16T14:26:39;20.70;88.20
2621;DHT22;1320;48.128;11.592;2024-02-16T14:29:05;20.50;88.40
2621;DHT22;1320;48.128;11.592;2024-02-16T14:31:32;20.50;88.90
2621;DHT22;1320;48.128;11.592;2024-02-16T14:33:59;20.40;89.40
2621;DHT22;1320;48.128;11.592;2024-02-16T14:36:25;20.40;89.20
2621;DHT22;1320;48.128;11.592;2024-02-16T14:38:50;20.40;89.40
2621;DHT22;1320;48.128;11.592;2024-02-16T14:41:16;20.50;89.60
2621;DHT22;1320;48.128;11.592;2024-02-16T14:43:42;20.60;89.70
2621;DHT22;1320;48.128;11.592;2024-02-16T14:46:08;20.70;89.70
2621;DHT22;1320;48.128;11.592;2024-02-16T14:48:35;20.80;89.70
2621;DHT22;1320;48.128;11.592;2024-02-16T14:51:01;21.10;89.10
2621;DHT22;1320;48.128;11.592;2024-02-16T14:53:27;21.40;89.20
2621;DHT22;1320;48.128;11.592;2024-02-16T14:55:59;21.60;89.00
2621;DHT22;1320;48.128;11.592;2024-02-16T14:58:25;21.90;88.40
2621;DHT22;1320;48.128;11.592;2024-02-16T15:00:51;22.10;87.50
2621;DHT22;1320;48.128;11.592;2024-02-16T15:03:17;22.10;87.40
2621;DHT22;1320;48.128;11.592;2024-02-16T15:05:44;22.00;87.40
2621;DHT22;1320;48.128;11.592;2024-02-16T15:08:10;21.90;87.80
2621;DHT22;1320;48.128;11.592;2024-02-16T15:10:36;21.80;88.00
2621;DHT22;1320;48.128;11.592;2024-02-16T15:13:01;21.60;88.40
2621;DHT22;1320;48.128;11.592;2024-02-16T15:15:27;21.50;88.80
2621;DHT22;1320;48.128;11.592;2024-02-16T15:17:53;21.30;89.40
2621;DHT22;1320;48.128;11.592;2024-02-16T15:20:18;21.00;90.00
2621;DHT22;1320;48.128;11.592;2024-02-16T15:22:47;20.80;90.30
2621;DHT22;1320;48.128;11.592;2024-02-16T15:25:13;20.50;90.60
2621;DHT22;1320;48.128;11.592;2024-02-16T15:27:39;20.30;90.80
2621;DHT22;1320;48.128;11.592;2024-02-16T15:30:05;20.20;91.00
2621;DHT22;1320;48.128;11.592;2024-02-16T15:32:31;20.10;91.10
2621;DHT22;1320;48.128;11.592;2024-02-16T15:34:57;19.90;90.90
2621;DHT22;1320;48.128;11.592;2024-02-16T15:37:22;19.70;90.90
2621;DHT22;1320;48.128;11.592;2024-02-16T15:39:48;19.50;90.90
2621;DHT22;1320;48.128;11.592;2024-02-16T15:42:19;19.30;91.00
2621;DHT22;1320;48.128;11.592;2024-02-16T15:44:44;19.10;91.20
2621;DHT22;1320;48.128;11.592;2024-02-16T15:47:10;18.90;91.20
2621;DHT22;1320;48.128;11.592;2024-02-16T15:49:36;18.80;91.40
2621;DHT22;1320;48.128;11.592;2024-02-16T15:52:02;18.80;91.50
2621;DHT22;1320;48.128;11.592;2024-02-16T15:54:29;18.60;91.70
2621;DHT22;1320;48.128;11.592;2024-02-16T15:56:54;18.60;91.90
2621;DHT22;1320;48.128;11.592;2024-02-16T15:59:20;18.50;92.00
2621;DHT22;1320;48.128;11.592;2024-02-16T16:01:46;18.50;92.10
2621;DHT22;1320;48.128;11.592;2024-02-16T16:04:13;18.50;92.10
2621;DHT22;1320;48.128;11.592;2024-02-16T16:06:39;18.40;92.30
2621;DHT22;1320;48.128;11.592;2024-02-16T16:09:05;18.30;92.30
2621;DHT22;1320;48.128;11.592;2024-02-16T16:11:34;18.20;92.40
2621;DHT22;1320;48.128;11.592;2024-02-16T16:14:00;18.10;92.50
2621;DHT22;1320;48.128;11.592;2024-02-16T16:16:26;18.10;92.50
2621;DHT22;1320;48.128;11.592;2024-02-16T16:18:51;17.90;92.50
2621;DHT22;1320;48.128;11.592;2024-02-16T16:21:21;17.80;92.60
2621;DHT22;1320;48.128;11.592;2024-02-16T16:23:46;17.70;93.10
2621;DHT22;1320;48.128;11.592;2024-02-16T16:26:12;17.60;92.90
2621;DHT22;1320;48.128;11.592;2024-02-16T16:28:38;17.50;93.10
2621;DHT22;1320;48.128;11.592;2024-02-16T16:31:03;17.40;93.20
2621;DHT22;1320;48.128;11.592;2024-02-16T16:33:30;17.30;93.30
2621;DHT22;1320;48.128;11.592;2024-02-16T16:35:55;17.20;93.50
2621;DHT22;1320;48.128;11.592;2024-02-16T16:38:21;17.20;93.60
2621;DHT22;1320;48.128;11.592;2024-02-16T16:40:47;17.10;93.80
2621;DHT22;1320;48.128;11.592;2024-02-16T16:43:12;17.10;93.70
2621;DHT22;1320;48.128;11.592;2024-02-16T16:45:38;17.10;93.90
2621;DHT22;1320;48.128;11.592;2024-02-16T16:48:04;17.10;93.90
2621;DHT22;1320;48.128;11.592;2024-02-16T16:50:30;17.10;94.00
2621;DHT22;1320;48.128;11.592;2024-02-16T16:52:56;17.00;94.00
2621;DHT22;1320;48.128;11.592;2024-02-16T16:55:22;17.00;94.10
2621;DHT22;1320;48.128;11.592;2024-02-16T16:57:48;16.90;94.20
2621;DHT22;1320;48.128;11.592;2024-02-16T17:00:14;16.90;94.40
2621;DHT22;1320;48.128;11.592;2024-02-16T17:02:40;16.80;94.40
2621;DHT22;1320;48.128;11.592;2024-02-16T17:05:06;16.80;94.50
2621;DHT22;1320;48.128;11.592;2024-02-16T17:07:34;16.70;94.60
2621;DHT22;1320;48.128;11.592;2024-02-16T17:10:00;16.70;94.80
2621;DHT22;1320;48.128;11.592;2024-02-16T17:12:26;16.70;94.80
2621;DHT22;1320;48.128;11.592;2024-02-16T17:14:53;16.70;94.90
2621;DHT22;1320;48.128;11.592;2024-02-16T17:17:19;16.60;94.90
2621;DHT22;1320;48.128;11.592;2024-02-16T17:19:45;16.60;95.10
2621;DHT22;1320;48.128;11.592;2024-02-16T17:22:12;16.60;95.10
2621;DHT22;1320;48.128;11.592;2024-02-16T17:24:38;16.60;95.20
2621;DHT22;1320;48.128;11.592;2024-02-16T17:27:05;16.50;95.20
2621;DHT22;1320;48.128;11.592;2024-02-16T17:29:30;16.50;95.30
2621;DHT22;1320;48.128;11.592;2024-02-16T17:31:57;16.50;95.50
2621;DHT22;1320;48.128;11.592;2024-02-16T17:34:23;16.40;95.60
2621;DHT22;1320;48.128;11.592;2024-02-16T17:36:49;16.40;95.60
2621;DHT22;1320;48.128;11.592;2024-02-16T17:39:16;16.40;95.70
2621;DHT22;1320;48.128;11.592;2024-02-16T17:41:42;16.40;95.80
2621;DHT22;1320;48.128;11.592;2024-02-16T17:44:07;16.30;95.90
2621;DHT22;1320;48.128;11.592;2024-02-16T17:46:33;16.30;95.90
2621;DHT22;1320;48.128;11.592;2024-02-16T17:48:59;16.30;96.00
2621;DHT22;1320;48.128;11.592;2024-02-16T17:51:25;16.30;96.10
2621;DHT22;1320;48.128;11.592;2024-02-16T17:53:51;16.30;96.10
2621;DHT22;1320;48.128;11.592;2024-02-16T17:56:18;16.30;96.20
2621;DHT22;1320;48.128;11.592;2024-02-16T17:58:45;16.30;96.20
2621;DHT22;1320;48.128;11.592;2024-02-16T18:01:11;16.30;96.20
2621;DHT22;1320;48.128;11.592;2024-02-16T18:03:37;16.30;96.30
2621;DHT22;1320;48.128;11.592;2024-02-16T18:06:03;16.30;96.30
2621;DHT22;1320;48.128;11.592;2024-02-16T18:08:29;16.30;96.30
2621;DHT22;1320;48.128;11.592;2024-02-16T18:10:55;16.30;96.30
2621;DHT22;1320;48.128;11.592;2024-02-16T18:13:20;16.30;96.30
2621;DHT22;1320;48.128;11.592;2024-02-16T18:15:50;16.30;96.50
2621;DHT22;1320;48.128;11.592;2024-02-16T18:18:17;16.20;96.50
2621;DHT22;1320;48.128;11.592;2024-02-16T18:20:43;16.20;96.50
2621;DHT22;1320;48.128;11.592;2024-02-16T18:23:09;16.20;96.50
2621;DHT22;1320;48.128;11.592;2024-02-16T18:25:43;16.20;96.50
2621;DHT22;1320;48.128;11.592;2024-02-16T18:28:09;16.20;96.80
2621;DHT22;1320;48.128;11.592;2024-02-16T18:30:34;16.20;96.60
2621;DHT22;1320;48.128;11.592;2024-02-16T18:33:00;16.20;96.70
2621;DHT22;1320;48.128;11.592;2024-02-16T18:35:26;16.10;96.70
2621;DHT22;1320;48.128;11.592;2024-02-16T18:37:52;16.20;96.70
2621;DHT22;1320;48.128;11.592;2024-02-16T18:40:17;16.10;96.70
2621;DHT22;1320;48.128;11.592;2024-02-16T18:42:43;16.10;96.80
2621;DHT22;1320;48.128;11.592;2024-02-16T18:45:09;16.10;96.90
2621;DHT22;1320;48.128;11.592;2024-02-16T18:47:35;16.00;96.90
2621;DHT22;1320;48.128;11.592;2024-02-16T18:50:02;16.00;97.00
2621;DHT22;1320;48.128;11.592;2024-02-16T18:52:28;16.00;97.50
2621;DHT22;1320;48.128;11.592;2024-02-16T18:54:53;16.00;97.20
2621;DHT22;1320;48.128;11.592;2024-02-16T18:57:19;16.00;97.30
2621;DHT22;1320;48.128;11.592;2024-02-16T18:59:45;16.00;97.40
2621;DHT22;1320;48.128;11.592;2024-02-16T19:02:10;16.00;97.40
2621;DHT22;1320;48.128;11.592;2024-02-16T19:04:36;16.00;97.50
2621;DHT22;1320;48.128;11.592;2024-02-16T19:07:02;15.90;97.50
2621;DHT22;1320;48.128;11.592;2024-02-16T19:09:29;15.90;97.60
2621;DHT22;1320;48.128;11.592;2024-02-16T19:11:55;15.90;97.70
2621;DHT22;1320;48.128;11.592;2024-02-16T19:14:22;15.90;97.70
2621;DHT22;1320;48.128;11.592;2024-02-16T19:16:49;15.90;97.70
2621;DHT22;1320;48.128;11.592;2024-02-16T19:19:15;15.80;97.80
2621;DHT22;1320;48.128;11.592;2024-02-16T19:21:42;15.80;97.90
2621;DHT22;1320;48.128;11.592;2024-02-16T19:24:07;15.80;98.10
2621;DHT22;1320;48.128;11.592;2024-02-16T19:26:34;15.80;98.10
2621;DHT22;1320;48.128;11.592;2024-02-16T19:29:02;15.80;98.20
2621;DHT22;1320;48.128;11.592;2024-02-16T19:31:28;15.70;98.30
2621;DHT22;1320;48.128;11.592;2024-02-16T19:34:00;15.70;98.30
2621;DHT22;1320;48.128;11.592;2024-02-16T19:36:26;15.70;98.40
2621;DHT22;1320;48.128;11.592;2024-02-16T19:38:52;15.60;98.50
2621;DHT22;1320;48.128;11.592;2024-02-16T19:41:17;15.60;98.60
2621;DHT22;1320;48.128;11.592;2024-02-16T19:43:43;15.60;98.80
2621;DHT22;1320;48.128;11.592;2024-02-16T19:46:09;15.50;99.00
2621;DHT22;1320;48.128;11.592;2024-02-16T19:48:34;15.50;99.10
2621;DHT22;1320;48.128;11.592;2024-02-16T19:51:00;15.50;99.20
2621;DHT22;1320;48.128;11.592;2024-02-16T19:53:26;15.50;99.40
2621;DHT22;1320;48.128;11.592;2024-02-16T19:55:53;15.40;99.50
2621;DHT22;1320;48.128;11.592;2024-02-16T19:58:18;15.40;99.60
2621;DHT22;1320;48.128;11.592;2024-02-16T20:00:45;15.40;99.70
2621;DHT22;1320;48.128;11.592;2024-02-16T20:03:21;15.40;99.70
2621;DHT22;1320;48.128;11.592;2024-02-16T20:05:47;15.40;99.90
2621;DHT22;1320;48.128;11.592;2024-02-16T20:08:13;15.40;99.90
2621;DHT22;1320;48.128;11.592;2024-02-16T20:10:39;15.40;99.90
2621;DHT22;1320;48.128;11.592;2024-02-16T20:13:05;15.40;99.90
2621;DHT22;1320;48.128;11.592;2024-02-16T20:15:31;15.40;99.90
2621;DHT22;1320;48.128;11.592;2024-02-16T20:17:57;15.30;99.90
2621;DHT22;1320;48.128;11.592;2024-02-16T20:20:24;15.30;99.90
2621;DHT22;1320;48.128;11.592;2024-02-16T20:22:49;15.30;99.90
2621;DHT22;1320;48.128;11.592;2024-02-16T20:25:15;15.30;99.90
2621;DHT22;1320;48.128;11.592;2024-02-16T20:27:42;15.20;99.90
2621;DHT22;1320;48.128;11.592;2024-02-16T20:30:08;15.20;99.90
2621;DHT22;1320;48.128;11.592;2024-02-16T20:32:34;15.20;99.90
2621;DHT22;1320;48.128;11.592;2024-02-16T20:34:59;15.20;99.90
2621;DHT22;1320;48.128;11.592;2024-02-16T20:37:30;15.20;99.90
2621;DHT22;1320;48.128;11.592;2024-02-16T20:39:55;15.20;99.90
2621;DHT22;1320;48.128;11.592;2024-02-16T20:42:22;15.10;99.90
2621;DHT22;1320;48.128;11.592;2024-02-16T20:44:48;15.10;99.90
2621;DHT22;1320;48.128;11.592;2024-02-16T20:47:14;15.20;99.90
2621;DHT22;1320;48.128;11.592;2024-02-16T20:49:40;15.20;99.90
2621;DHT22;1320;48.128;11.592;2024-02-16T20:52:06;15.20;99.90
2621;DHT22;1320;48.128;11.592;2024-02-16T20:54:31;15.20;99.90
2621;DHT22;1320;48.128;11.592;2024-02-16T20:56:57;15.20;99.90
2621;DHT22;1320;48.128;11.592;2024-02-16T20:59:25;15.20;99.90
2621;DHT22;1320;48.128;11.592;2024-02-16T21:01:51;15.20;99.90
2621;DHT22;1320;48.128;11.592;2024-02-16T21:04:37;15.20;99.90
2621;DHT22;1320;48.128;11.592;2024-02-16T21:07:03;15.20;99.90
2621;DHT22;1320;48.128;11.592;2024-02-16T21:09:29;15.20;99.90